Time;durP1;ratioP1;P1;durP2;ratioP2;P2;SDS_P1;SDS_P2;PMS_P1;PMS_P2;Temp;Humidity;BMP_temperature;BMP_pressure;BME280_temperature;BME280_humidity;BME280_pressure;Samples;Min_cycle;Max_cycle;Signal;HPM_P1;HPM_P2
2022/01/18 00:01:35;;;;;;;17.40;8.63;;;7.90;85.50;;;;;;4917007;29;20475;-51
2022/01/18 00:04:03;;;;;;;17.87;8.90;;;7.80;85.50;;;;;;4925310;29;20468;-50
2022/01/18 00:06:29;;;;;;;12.90;8.33;;;7.80;85.70;;;;;;4915159;29;20460;-49
2022/01/18 00:08:56;;;;;;;20.47;8.30;;;7.90;85.30;;;;;;4921872;29;20965;-49
2022/01/18 00:11:26;;;;;;;12.10;7.20;;;7.80;85.40;;;;;;4924628;29;20453;-49
2022/01/18 00:14:02;;;;;;;17.10;8.80;;;7.90;84.90;;;;;;4925701;29;20476;-49
2022/01/18 00:16:37;;;;;;;14.27;8.27;;;7.90;84.90;;;;;;4927160;29;20836;-48
2022/01/18 00:19:08;;;;;;;18.63;8.60;;;7.90;84.90;;;;;;4928385;29;20845;-49
2022/01/18 00:24:17;;;;;;;15.70;8.90;;;7.90;84.90;;;;;;4925976;29;20862;-49
2022/01/18 00:26:44;;;;;;;19.03;9.80;;;7.90;84.90;;;;;;4929934;29;20495;-49
2022/01/18 00:29:14;;;;;;;15.00;8.80;;;7.90;85.00;;;;;;4927483;29;20550;-49
2022/01/18 00:36:53;;;;;;;15.70;10.17;;;7.80;85.10;;;;;;4926429;29;20969;-49
2022/01/18 00:39:20;;;;;;;17.93;8.77;;;7.80;85.20;;;;;;4925791;29;20459;-49
2022/01/18 00:41:47;;;;;;;12.33;7.73;;;7.80;85.30;;;;;;4924172;29;20471;-49
2022/01/18 00:44:14;;;;;;;15.80;8.40;;;7.80;85.20;;;;;;4929338;29;20560;-50
2022/01/18 00:46:42;;;;;;;11.17;7.10;;;7.80;85.00;;;;;;4929119;29;20513;-49
2022/01/18 00:49:10;;;;;;;12.70;6.60;;;7.80;85.00;;;;;;4915540;29;20560;-50
2022/01/18 00:51:39;;;;;;;13.97;7.80;;;7.80;85.00;;;;;;4928252;29;20469;-49
2022/01/18 00:54:13;;;;;;;18.20;7.30;;;7.80;84.90;;;;;;4925822;29;20914;-50
2022/01/18 00:56:41;;;;;;;9.97;6.17;;;7.80;84.90;;;;;;4925127;29;20626;-49
2022/01/18 00:59:08;;;;;;;12.03;7.53;;;7.80;84.80;;;;;;4922076;29;20868;-50
2022/01/18 01:01:36;;;;;;;11.67;7.13;;;7.80;84.80;;;;;;4912366;29;20460;-50
2022/01/18 01:04:05;;;;;;;8.47;6.00;;;7.80;84.70;;;;;;4927929;29;20464;-49
2022/01/18 01:06:33;;;;;;;17.43;7.03;;;7.80;84.80;;;;;;4927840;29;20465;-49
2022/01/18 01:09:00;;;;;;;9.20;6.03;;;7.70;84.80;;;;;;4926150;29;20503;-49
2022/01/18 01:11:28;;;;;;;11.53;7.10;;;7.70;84.80;;;;;;4924968;29;20681;-49
2022/01/18 01:13:59;;;;;;;17.60;6.90;;;7.70;84.80;;;;;;4928271;29;20544;-49
2022/01/18 01:43:26;;;;;;;11.80;6.60;;;7.60;84.90;;;;;;4922923;29;20982;-50
2022/01/18 01:45:55;;;;;;;11.33;6.20;;;7.60;85.00;;;;;;4924864;29;20772;-49
2022/01/18 01:48:24;;;;;;;15.77;7.20;;;7.60;85.00;;;;;;4923676;29;20492;-50
2022/01/18 01:51:02;;;;;;;16.70;7.70;;;7.60;85.00;;;;;;4901534;29;20964;-49
2022/01/18 01:53:30;;;;;;;12.13;6.80;;;7.50;85.20;;;;;;4921776;29;20822;-49
2022/01/18 01:55:57;;;;;;;13.77;6.90;;;7.50;85.20;;;;;;4897341;29;20456;-49
2022/01/18 01:58:26;;;;;;;13.63;6.67;;;7.50;85.30;;;;;;4923507;29;20467;-49
2022/01/18 02:00:56;;;;;;;7.33;5.73;;;7.50;85.30;;;;;;4927054;29;20467;-49
2022/01/18 02:03:23;;;;;;;10.23;7.40;;;7.50;85.30;;;;;;4912944;29;20468;-49
2022/01/18 02:05:51;;;;;;;11.63;6.27;;;7.50;85.30;;;;;;4922825;29;20463;-49
2022/01/18 02:08:18;;;;;;;12.23;6.50;;;7.50;85.30;;;;;;4921275;29;20493;-49
2022/01/18 02:10:45;;;;;;;10.43;6.50;;;7.50;85.30;;;;;;4925583;29;20555;-49
2022/01/18 02:13:12;;;;;;;9.93;6.13;;;7.50;85.30;;;;;;4926307;29;20484;-49
2022/01/18 02:15:58;;;;;;;13.60;7.00;;;7.50;85.30;;;;;;4911332;29;20988;-49
2022/01/18 02:21:46;;;;;;;16.67;6.23;;;7.40;85.30;;;;;;4925896;29;20468;-49
2022/01/18 02:24:08;;;;;;;13.43;6.40;;;7.50;85.30;;;;;;4924162;29;20480;-49
2022/01/18 02:26:35;;;;;;;12.70;6.67;;;7.50;85.30;;;;;;4925867;29;20467;-49
2022/01/18 02:29:08;;;;;;;11.93;6.47;;;7.50;85.30;;;;;;4922579;29;20570;-50
2022/01/18 02:31:36;;;;;;;15.83;6.60;;;7.40;85.30;;;;;;4908585;29;20467;-49
2022/01/18 02:34:11;;;;;;;14.43;6.40;;;7.40;85.40;;;;;;4923192;29;20479;-50
2022/01/18 02:36:39;;;;;;;14.03;5.77;;;7.40;85.60;;;;;;4923708;29;20904;-49
2022/01/18 02:39:07;;;;;;;12.13;6.47;;;7.40;85.60;;;;;;4924276;29;20504;-49
2022/01/18 02:41:35;;;;;;;14.50;6.80;;;7.40;85.70;;;;;;4941907;28;20470;-50
2022/01/18 02:44:11;;;;;;;14.93;5.47;;;7.40;85.70;;;;;;4924506;29;20976;-50
2022/01/18 02:46:42;;;;;;;11.87;6.20;;;7.40;85.60;;;;;;4927098;29;20461;-49
2022/01/18 02:49:08;;;;;;;11.70;6.60;;;7.40;85.60;;;;;;4926046;29;20484;-50
2022/01/18 02:51:35;;;;;;;8.43;6.13;;;7.40;85.70;;;;;;4922998;29;20479;-50
2022/01/18 02:54:04;;;;;;;16.07;6.67;;;7.40;85.80;;;;;;4920431;29;20453;-51
2022/01/18 02:56:41;;;;;;;14.90;6.13;;;7.40;85.80;;;;;;4913216;29;20461;-52
2022/01/18 03:04:22;;;;;;;11.80;5.93;;;7.30;85.90;;;;;;4924853;29;20464;-51
2022/01/18 03:06:49;;;;;;;15.63;6.60;;;7.30;85.90;;;;;;4924970;29;21093;-51
2022/01/18 03:09:16;;;;;;;10.43;6.60;;;7.30;86.00;;;;;;4924007;29;20579;-51
2022/01/18 03:11:43;;;;;;;13.63;8.07;;;7.20;86.20;;;;;;4926847;29;20455;-50
2022/01/18 03:14:10;;;;;;;10.47;6.33;;;7.30;86.00;;;;;;4927791;29;20465;-51
2022/01/18 03:16:37;;;;;;;12.33;6.80;;;7.30;85.90;;;;;;4924293;29;20463;-50
2022/01/18 03:19:04;;;;;;;13.50;5.83;;;7.30;85.90;;;;;;4925503;29;20461;-51
2022/01/18 03:21:31;;;;;;;11.50;6.40;;;7.20;86.00;;;;;;4924053;29;20453;-51
2022/01/18 03:29:45;;;;;;;16.43;5.50;;;7.20;86.20;;;;;;4926671;29;20462;-50
2022/01/18 03:32:12;;;;;;;11.80;6.70;;;7.20;86.20;;;;;;4929188;29;20466;-49
2022/01/18 03:34:39;;;;;;;10.20;6.53;;;7.20;86.20;;;;;;4929089;29;20482;-50
2022/01/18 03:37:06;;;;;;;9.83;5.60;;;7.20;86.20;;;;;;4931543;29;20456;-49
2022/01/18 03:39:32;;;;;;;11.93;6.70;;;7.20;86.30;;;;;;4925517;29;21005;-49
2022/01/18 03:42:32;;;;;;;8.73;5.20;;;7.20;86.30;;;;;;4926680;29;21025;-49
2022/01/18 03:44:48;;;;;;;22.97;6.30;;;7.20;86.40;;;;;;4926766;29;20555;-49
2022/01/18 03:47:17;;;;;;;14.47;4.83;;;7.30;86.00;;;;;;4916892;29;20460;-51
2022/01/18 03:49:44;;;;;;;10.10;4.57;;;7.30;85.90;;;;;;4932629;29;20481;-49
2022/01/18 03:52:10;;;;;;;13.63;6.23;;;7.30;85.80;;;;;;4913943;29;20459;-49
2022/01/18 03:54:42;;;;;;;17.27;5.87;;;7.30;85.80;;;;;;4927710;29;20516;-49
2022/01/18 03:57:10;;;;;;;9.13;4.77;;;7.30;85.90;;;;;;4921727;29;20457;-49
2022/01/18 03:59:36;;;;;;;10.50;5.23;;;7.30;85.90;;;;;;4931156;29;20826;-48
2022/01/18 04:02:04;;;;;;;7.60;4.93;;;7.30;85.90;;;;;;4924905;29;20464;-48
2022/01/18 04:04:32;;;;;;;7.23;4.20;;;7.30;85.90;;;;;;4925772;29;20463;-48
2022/01/18 04:06:58;;;;;;;11.10;4.97;;;7.30;85.90;;;;;;4913299;29;20480;-48
2022/01/18 04:09:25;;;;;;;7.50;4.30;;;7.30;85.90;;;;;;4923827;29;20500;-48
2022/01/18 04:11:53;;;;;;;15.33;5.27;;;7.30;85.80;;;;;;4924981;29;20456;-48
2022/01/18 04:14:20;;;;;;;7.40;4.90;;;7.30;85.70;;;;;;4911440;29;20475;-48
2022/01/18 04:27:39;;;;;;;11.27;5.23;;;7.30;85.70;;;;;;4925184;29;21033;-47
2022/01/18 04:30:06;;;;;;;18.47;5.47;;;7.40;85.60;;;;;;4913391;29;20461;-48
2022/01/18 04:32:33;;;;;;;13.57;4.93;;;7.30;85.60;;;;;;4921259;29;20544;-48
2022/01/18 04:35:01;;;;;;;9.47;5.23;;;7.40;85.50;;;;;;4925415;29;20474;-47
2022/01/18 04:37:28;;;;;;;15.10;5.10;;;7.40;85.40;;;;;;4907985;29;20868;-48
2022/01/18 04:39:57;;;;;;;11.93;5.23;;;7.40;85.40;;;;;;4908935;29;20822;-47
2022/01/18 04:42:42;;;;;;;13.93;5.70;;;7.40;85.30;;;;;;4912080;29;20461;-47
2022/01/18 04:50:45;;;;;;;10.83;5.83;;;7.40;85.30;;;;;;4927613;29;20878;-47
2022/01/18 04:53:11;;;;;;;8.53;5.50;;;7.40;85.10;;;;;;4924443;29;20827;-47
2022/01/18 04:55:38;;;;;;;13.93;5.77;;;7.40;85.10;;;;;;4920402;29;20460;-47
2022/01/18 04:58:05;;;;;;;11.43;5.77;;;7.30;85.30;;;;;;4940808;28;21005;-47
2022/01/18 05:00:33;;;;;;;11.00;6.80;;;7.40;85.30;;;;;;4921494;29;20851;-47
2022/01/18 05:03:00;;;;;;;11.57;5.10;;;7.30;85.30;;;;;;4924200;29;20486;-47
2022/01/18 05:05:33;;;;;;;13.53;5.80;;;7.30;85.30;;;;;;4913861;29;20546;-48
2022/01/18 05:08:02;;;;;;;21.20;6.07;;;7.30;85.20;;;;;;4925078;29;21072;-47
2022/01/18 05:10:30;;;;;;;19.20;5.93;;;7.20;85.30;;;;;;4925494;29;20452;-47
2022/01/18 05:12:59;;;;;;;16.90;5.57;;;7.30;85.50;;;;;;4921408;29;20991;-47
2022/01/18 05:18:59;;;;;;;10.80;6.20;;;7.20;85.70;;;;;;4925007;29;20458;-48
2022/01/18 05:21:17;;;;;;;13.00;6.30;;;7.20;85.80;;;;;;4925724;29;20463;-47
2022/01/18 05:23:43;;;;;;;11.00;6.83;;;7.10;85.90;;;;;;4906489;29;20506;-48
2022/01/18 05:26:10;;;;;;;9.10;5.97;;;7.10;85.90;;;;;;4911651;29;20540;-48
2022/01/18 05:28:37;;;;;;;13.83;5.70;;;7.10;86.00;;;;;;4924260;29;20491;-48
2022/01/18 05:31:05;;;;;;;11.37;6.60;;;7.10;86.00;;;;;;4921173;29;20468;-48
2022/01/18 05:33:32;;;;;;;12.10;5.50;;;7.10;86.10;;;;;;4923210;29;20459;-48
2022/01/18 05:35:59;;;;;;;20.30;6.77;;;7.10;86.10;;;;;;4922922;29;20677;-48
2022/01/18 05:38:25;;;;;;;11.03;5.70;;;7.10;86.00;;;;;;4910538;29;21080;-48
2022/01/18 05:40:52;;;;;;;20.13;8.93;;;7.10;86.20;;;;;;4922424;29;20464;-48
2022/01/18 05:43:19;;;;;;;12.80;6.13;;;7.10;86.20;;;;;;4923184;29;20458;-48
2022/01/18 05:45:46;;;;;;;13.83;5.80;;;7.10;86.20;;;;;;4923769;29;20455;-48
2022/01/18 05:48:13;;;;;;;14.23;5.20;;;7.10;86.20;;;;;;4922604;29;20488;-48
2022/01/18 05:50:40;;;;;;;7.27;5.33;;;7.10;86.20;;;;;;4921975;29;20467;-48
2022/01/18 05:53:07;;;;;;;10.03;5.50;;;7.10;86.20;;;;;;4918091;29;20461;-48
2022/01/18 05:55:34;;;;;;;13.10;5.70;;;7.10;86.10;;;;;;4921857;29;20455;-48
2022/01/18 05:58:01;;;;;;;11.77;5.83;;;7.10;86.20;;;;;;4922033;29;20587;-48
2022/01/18 06:00:29;;;;;;;8.67;5.20;;;7.10;86.00;;;;;;4922253;29;20447;-48
2022/01/18 06:08:15;;;;;;;14.97;5.80;;;7.10;86.30;;;;;;4920904;29;20988;-48
2022/01/18 06:10:41;;;;;;;10.20;6.00;;;7.10;86.30;;;;;;4919829;29;20842;-48
2022/01/18 06:13:09;;;;;;;8.30;4.90;;;7.00;86.30;;;;;;4922875;29;20456;-47
2022/01/18 06:15:36;;;;;;;13.97;4.87;;;7.00;86.40;;;;;;4924591;29;20549;-47
2022/01/18 06:18:03;;;;;;;10.80;5.60;;;7.10;86.50;;;;;;4924036;29;20833;-48
2022/01/18 06:20:30;;;;;;;12.80;5.53;;;7.10;86.30;;;;;;4921205;29;20448;-47
2022/01/18 06:22:57;;;;;;;12.30;5.30;;;7.10;86.30;;;;;;4923933;29;20492;-47
2022/01/18 06:25:28;;;;;;;9.87;4.90;;;7.00;86.40;;;;;;4921109;29;20468;-47
2022/01/18 06:27:55;;;;;;;10.30;5.73;;;7.10;86.50;;;;;;4921655;29;20913;-47
2022/01/18 06:30:22;;;;;;;12.80;6.40;;;7.10;86.40;;;;;;4922932;29;21000;-47
2022/01/18 06:32:49;;;;;;;10.07;5.97;;;7.00;86.40;;;;;;4922483;29;20469;-47
2022/01/18 06:35:17;;;;;;;12.80;7.30;;;7.00;86.50;;;;;;4921122;29;20859;-47
2022/01/18 06:37:44;;;;;;;8.17;5.23;;;7.00;86.60;;;;;;4911804;29;20551;-47
2022/01/18 06:40:13;;;;;;;13.90;5.93;;;7.00;86.70;;;;;;4922842;29;20470;-47
2022/01/18 06:42:40;;;;;;;12.57;6.10;;;7.10;86.70;;;;;;4921859;29;20480;-47
2022/01/18 06:45:09;;;;;;;9.93;5.33;;;7.00;86.60;;;;;;4924100;29;20464;-48
2022/01/18 06:47:37;;;;;;;8.33;5.53;;;7.00;86.60;;;;;;4911014;29;20467;-47
2022/01/18 06:50:06;;;;;;;11.37;5.97;;;7.10;86.60;;;;;;4910966;29;20483;-48
2022/01/18 06:52:35;;;;;;;8.70;4.93;;;7.10;86.50;;;;;;4923794;29;20460;-47
2022/01/18 06:55:02;;;;;;;7.30;5.20;;;7.20;86.30;;;;;;4924918;29;20460;-47
2022/01/18 06:57:29;;;;;;;10.07;6.23;;;7.20;86.20;;;;;;4922963;29;20474;-48
2022/01/18 06:59:56;;;;;;;14.77;6.23;;;7.10;86.20;;;;;;4909425;29;20479;-48
2022/01/18 07:02:23;;;;;;;18.30;7.47;;;7.10;86.40;;;;;;4912565;29;20851;-47
2022/01/18 07:04:50;;;;;;;28.10;14.83;;;7.00;86.50;;;;;;4918626;29;20518;-47
2022/01/18 07:07:17;;;;;;;24.13;12.33;;;7.00;86.60;;;;;;4922236;29;21166;-47
2022/01/18 07:09:47;;;;;;;15.50;8.67;;;7.00;86.60;;;;;;4922414;29;20489;-48
2022/01/18 07:12:15;;;;;;;16.23;8.13;;;7.10;86.30;;;;;;4921699;29;20457;-48
2022/01/18 07:14:42;;;;;;;13.20;6.83;;;7.10;86.00;;;;;;4935818;28;20985;-48
2022/01/18 07:17:09;;;;;;;18.37;7.23;;;7.10;86.10;;;;;;4921790;29;20462;-48
2022/01/18 07:19:37;;;;;;;13.93;6.83;;;7.00;86.30;;;;;;4909471;29;21006;-48
2022/01/18 07:22:05;;;;;;;14.87;6.33;;;7.00;86.40;;;;;;4922270;29;20539;-48
2022/01/18 07:27:11;;;;;;;12.70;6.30;;;7.00;86.50;;;;;;4921967;29;20465;-48
2022/01/18 07:29:41;;;;;;;12.50;6.20;;;7.00;86.50;;;;;;4921617;29;20512;-48
2022/01/18 07:32:09;;;;;;;12.10;5.90;;;7.10;86.30;;;;;;4923576;29;20463;-48
2022/01/18 07:34:41;;;;;;;10.10;5.60;;;7.10;86.30;;;;;;4934005;29;20807;-48
2022/01/18 07:37:09;;;;;;;11.43;6.30;;;7.00;86.30;;;;;;4923356;29;20546;-48
2022/01/18 07:39:36;;;;;;;9.30;5.93;;;7.10;86.40;;;;;;4918998;29;20530;-48
2022/01/18 07:42:03;;;;;;;8.13;5.47;;;7.10;86.30;;;;;;4908913;29;20472;-48
2022/01/18 07:44:30;;;;;;;13.43;5.73;;;7.10;86.30;;;;;;4917932;29;20471;-49
2022/01/18 07:46:57;;;;;;;12.07;6.40;;;7.10;86.40;;;;;;4923451;29;20828;-48
2022/01/18 07:49:25;;;;;;;12.73;5.80;;;7.10;86.40;;;;;;4913508;29;20487;-48
2022/01/18 07:51:52;;;;;;;14.20;6.17;;;7.10;86.40;;;;;;4924600;29;20475;-48
2022/01/18 07:54:18;;;;;;;7.60;5.70;;;7.10;86.30;;;;;;4911295;29;20452;-48
2022/01/18 07:56:45;;;;;;;9.27;6.00;;;7.10;86.20;;;;;;4924423;29;20461;-48
2022/01/18 07:59:13;;;;;;;18.37;5.47;;;7.10;86.30;;;;;;4920237;29;20465;-48
2022/01/18 08:01:43;;;;;;;10.37;5.53;;;7.10;86.40;;;;;;4927237;29;20845;-48
2022/01/18 08:04:11;;;;;;;11.80;5.57;;;7.10;86.60;;;;;;4924945;29;20479;-48
2022/01/18 08:06:38;;;;;;;8.50;5.30;;;7.10;86.60;;;;;;4927881;29;20466;-48
2022/01/18 08:09:05;;;;;;;8.97;5.87;;;7.10;86.70;;;;;;4923243;29;20534;-48
2022/01/18 08:11:32;;;;;;;10.13;5.80;;;7.10;86.70;;;;;;4922425;29;20538;-48
2022/01/18 08:14:03;;;;;;;10.47;5.53;;;7.10;86.70;;;;;;4924821;29;20462;-48
2022/01/18 08:19:02;;;;;;;10.93;6.60;;;7.20;86.60;;;;;;4925437;29;20456;-47
2022/01/18 08:21:34;;;;;;;7.13;5.00;;;7.20;86.60;;;;;;4926157;29;20872;-48
2022/01/18 08:24:00;;;;;;;8.10;5.50;;;7.20;86.50;;;;;;4908220;29;21227;-47
2022/01/18 08:26:28;;;;;;;13.40;5.50;;;7.20;86.50;;;;;;4910677;29;20464;-48
2022/01/18 08:28:54;;;;;;;17.80;6.17;;;7.30;86.50;;;;;;4923786;29;20486;-48
2022/01/18 08:31:21;;;;;;;11.03;5.50;;;7.30;86.50;;;;;;4925107;29;20471;-49
2022/01/18 08:33:48;;;;;;;11.83;6.10;;;7.30;86.60;;;;;;4925079;29;20460;-49
2022/01/18 08:36:15;;;;;;;10.60;7.33;;;7.30;86.60;;;;;;4923156;29;20791;-48
2022/01/18 08:38:42;;;;;;;12.07;6.60;;;7.40;86.60;;;;;;4928103;29;20462;-48
2022/01/18 08:41:09;;;;;;;12.37;5.97;;;7.40;86.60;;;;;;4924377;29;20464;-48
2022/01/18 08:43:38;;;;;;;11.70;5.97;;;7.40;86.50;;;;;;4926206;29;20457;-48
2022/01/18 08:46:05;;;;;;;11.70;6.47;;;7.40;86.50;;;;;;4925123;29;20852;-48
2022/01/18 08:48:34;;;;;;;12.33;6.73;;;7.50;85.90;;;;;;4921584;29;20535;-48
2022/01/18 08:51:02;;;;;;;10.10;6.33;;;7.50;85.40;;;;;;4927186;29;20448;-49
2022/01/18 08:53:28;;;;;;;10.30;5.80;;;7.60;85.00;;;;;;4940006;28;20469;-48
2022/01/18 08:55:56;;;;;;;11.90;6.43;;;7.60;85.10;;;;;;4923080;29;20596;-48
2022/01/18 08:58:23;;;;;;;15.53;6.00;;;7.60;85.20;;;;;;4920229;29;21031;-48
2022/01/18 09:00:50;;;;;;;9.87;5.73;;;7.70;84.90;;;;;;4921605;29;20456;-48
2022/01/18 09:03:17;;;;;;;13.13;5.60;;;7.70;84.60;;;;;;4920269;29;21021;-49
2022/01/18 09:05:45;;;;;;;12.47;5.70;;;7.70;84.60;;;;;;4926632;29;20965;-49
2022/01/18 09:08:13;;;;;;;12.47;5.87;;;7.70;84.30;;;;;;4926723;29;21065;-48
2022/01/18 09:10:41;;;;;;;13.33;5.40;;;7.70;84.50;;;;;;4914814;29;20546;-48
2022/01/18 09:13:28;;;;;;;10.20;6.03;;;7.70;84.60;;;;;;4922601;29;20520;-49
2022/01/18 09:15:59;;;;;;;9.53;5.37;;;7.70;84.70;;;;;;4922748;29;20455;-48
2022/01/18 09:18:25;;;;;;;15.40;6.70;;;7.70;84.80;;;;;;4924941;29;20591;-48
2022/01/18 09:20:57;;;;;;;8.27;5.97;;;7.70;84.80;;;;;;4918438;29;20831;-48
2022/01/18 09:23:25;;;;;;;9.10;5.87;;;7.70;84.90;;;;;;4908854;29;20926;-48
2022/01/18 09:25:52;;;;;;;12.47;7.10;;;7.80;85.10;;;;;;4909885;29;20468;-48
2022/01/18 09:28:19;;;;;;;11.50;6.63;;;7.80;85.00;;;;;;4926984;29;20551;-48
2022/01/18 09:30:56;;;;;;;11.17;6.23;;;7.90;84.90;;;;;;4921945;29;20525;-48
2022/01/18 09:33:22;;;;;;;15.27;6.40;;;7.90;84.80;;;;;;4922600;29;20539;-47
2022/01/18 09:35:50;;;;;;;11.43;5.87;;;8.00;84.70;;;;;;4922371;29;20460;-48
2022/01/18 09:38:17;;;;;;;11.70;6.77;;;8.00;84.50;;;;;;4922369;29;20823;-48
2022/01/18 09:40:45;;;;;;;9.40;5.53;;;8.10;84.30;;;;;;4922237;29;20776;-47
2022/01/18 09:43:14;;;;;;;16.90;7.70;;;8.10;84.10;;;;;;4925012;29;20459;-47
2022/01/18 09:45:44;;;;;;;13.50;6.50;;;8.10;83.70;;;;;;4926872;29;20521;-47
2022/01/18 09:48:12;;;;;;;15.30;8.70;;;8.10;83.70;;;;;;4920843;29;20950;-48
2022/01/18 09:50:42;;;;;;;13.80;5.50;;;8.20;83.70;;;;;;4910496;29;20506;-48
2022/01/18 09:53:11;;;;;;;17.33;6.00;;;8.20;83.50;;;;;;4923120;29;20500;-48
2022/01/18 09:55:38;;;;;;;13.87;6.50;;;8.30;83.50;;;;;;4924668;29;20460;-47
2022/01/18 09:58:07;;;;;;;16.40;5.93;;;8.30;83.50;;;;;;4920464;29;20457;-48
2022/01/18 10:00:38;;;;;;;10.73;6.47;;;8.30;83.30;;;;;;4918774;29;20468;-49
2022/01/18 10:03:23;;;;;;;13.80;7.20;;;8.40;83.10;;;;;;4927890;29;20821;-50
2022/01/18 10:05:50;;;;;;;11.07;6.03;;;8.40;83.10;;;;;;4924035;29;20545;-49
2022/01/18 10:08:19;;;;;;;10.77;5.90;;;8.40;82.90;;;;;;4926446;29;20474;-50
2022/01/18 10:10:50;;;;;;;5.90;5.23;;;8.40;82.70;;;;;;4913045;29;20491;-50
2022/01/18 10:13:19;;;;;;;8.10;5.43;;;8.50;82.70;;;;;;4910166;29;20462;-49
2022/01/18 10:16:13;;;;;;;7.17;4.50;;;8.50;82.70;;;;;;4919145;29;20527;-49
2022/01/18 10:18:49;;;;;;;8.50;5.43;;;8.50;82.80;;;;;;4922272;29;20957;-49
2022/01/18 10:21:40;;;;;;;13.70;6.37;;;8.60;82.40;;;;;;4925992;29;20554;-50
2022/01/18 10:24:23;;;;;;;7.47;5.07;;;8.60;82.30;;;;;;4922811;29;20487;-49
2022/01/18 10:26:51;;;;;;;7.00;4.60;;;8.70;82.10;;;;;;4927557;29;20460;-48
2022/01/18 10:29:24;;;;;;;13.10;5.40;;;8.70;81.90;;;;;;4924986;29;20502;-50
2022/01/18 10:36:55;;;;;;;6.27;3.00;;;8.80;81.60;;;;;;4923711;29;20947;-49
2022/01/18 10:39:24;;;;;;;4.17;3.20;;;8.80;81.40;;;;;;4921879;29;20463;-50
2022/01/18 10:41:51;;;;;;;6.43;3.00;;;8.90;80.80;;;;;;4924311;29;20471;-49
2022/01/18 10:44:19;;;;;;;5.30;2.47;;;8.90;80.70;;;;;;4923243;29;20467;-49
2022/01/18 10:46:57;;;;;;;6.97;3.40;;;9.00;79.80;;;;;;4924055;29;20464;-49
2022/01/18 10:49:47;;;;;;;6.63;3.70;;;9.00;78.40;;;;;;4934780;28;20495;-49
2022/01/18 10:52:21;;;;;;;9.37;3.83;;;9.10;78.60;;;;;;4921059;29;20973;-50
2022/01/18 10:54:59;;;;;;;7.60;3.90;;;9.10;78.70;;;;;;4930534;29;20459;-50
2022/01/18 10:57:33;;;;;;;6.13;4.17;;;9.10;78.40;;;;;;4923976;29;20465;-50
2022/01/18 11:00:11;;;;;;;9.17;4.27;;;9.10;78.20;;;;;;4909453;29;20463;-50
2022/01/18 11:02:43;;;;;;;7.37;4.23;;;9.10;77.70;;;;;;4939373;28;20460;-49
2022/01/18 11:05:25;;;;;;;5.53;3.30;;;9.10;77.90;;;;;;4911972;29;20582;-50
2022/01/18 11:07:53;;;;;;;5.87;4.23;;;9.20;77.20;;;;;;4922305;29;20457;-49
2022/01/18 11:10:23;;;;;;;11.67;5.90;;;9.20;77.00;;;;;;4923059;29;20488;-49
2022/01/18 11:13:03;;;;;;;8.07;5.70;;;9.20;76.70;;;;;;4905701;29;20877;-50
2022/01/18 11:15:32;;;;;;;9.00;6.10;;;9.20;76.60;;;;;;4922403;29;20464;-48
2022/01/18 11:18:06;;;;;;;6.70;3.90;;;9.20;76.90;;;;;;4923979;29;20567;-49
2022/01/18 11:20:36;;;;;;;7.80;3.90;;;9.20;76.70;;;;;;4924867;29;20460;-49
2022/01/18 11:23:05;;;;;;;8.10;4.80;;;9.20;76.10;;;;;;4914346;29;21015;-49
2022/01/18 11:25:33;;;;;;;5.97;3.57;;;9.20;76.30;;;;;;4924852;29;20542;-51
2022/01/18 11:28:01;;;;;;;6.13;3.60;;;9.20;76.50;;;;;;4925890;29;20474;-51
2022/01/18 11:30:34;;;;;;;5.80;3.30;;;9.20;76.80;;;;;;4924464;29;20492;-51
2022/01/18 11:33:04;;;;;;;7.07;4.00;;;9.20;77.10;;;;;;4927229;29;20544;-51
2022/01/18 11:35:37;;;;;;;13.10;4.10;;;9.30;77.10;;;;;;4932185;29;20802;-51
2022/01/18 11:38:22;;;;;;;4.97;3.80;;;9.30;76.70;;;;;;4929597;29;20829;-51
2022/01/18 11:40:53;;;;;;;9.47;4.50;;;9.30;76.60;;;;;;4925239;29;20538;-51
2022/01/18 11:43:35;;;;;;;5.50;3.43;;;9.30;76.90;;;;;;4914178;29;20464;-51
2022/01/18 11:46:36;;;;;;;5.53;3.50;;;9.30;77.10;;;;;;4919583;29;20474;-52
2022/01/18 11:49:23;;;;;;;4.10;3.00;;;9.20;77.00;;;;;;4926635;29;20491;-52
2022/01/18 11:51:54;;;;;;;6.33;4.27;;;9.20;77.00;;;;;;4923320;29;20453;-52
2022/01/18 11:57:25;;;;;;;7.80;4.00;;;9.20;77.00;;;;;;4923338;29;20455;-52
2022/01/18 11:59:55;;;;;;;5.10;3.13;;;9.20;77.10;;;;;;4925383;29;20946;-52
2022/01/18 12:02:37;;;;;;;6.47;3.33;;;9.20;77.10;;;;;;4925450;29;20839;-52
2022/01/18 12:05:13;;;;;;;4.00;3.27;;;9.20;77.20;;;;;;4927686;29;20502;-52
2022/01/18 12:07:41;;;;;;;7.03;3.80;;;9.10;77.20;;;;;;4927527;29;20490;-52
2022/01/18 12:10:27;;;;;;;6.50;3.83;;;9.10;77.20;;;;;;4926409;29;20492;-52
2022/01/18 12:12:56;;;;;;;4.03;3.53;;;9.10;77.20;;;;;;4927663;29;20468;-52
2022/01/18 12:15:23;;;;;;;4.83;3.00;;;9.10;77.20;;;;;;4925624;29;20967;-51
2022/01/18 12:17:51;;;;;;;3.57;3.03;;;9.10;77.30;;;;;;4926381;29;20451;-51
2022/01/18 12:20:46;;;;;;;7.50;3.43;;;9.10;77.50;;;;;;4922482;29;20468;-51
2022/01/18 12:23:32;;;;;;;4.10;2.90;;;9.10;77.60;;;;;;4924060;29;20941;-51
2022/01/18 12:26:02;;;;;;;5.70;3.30;;;9.10;77.20;;;;;;4926692;29;20456;-51
2022/01/18 12:36:54;;;;;;;8.63;4.93;;;9.10;76.40;;;;;;4929173;29;20511;-51
2022/01/18 12:39:23;;;;;;;6.37;3.47;;;9.10;77.00;;;;;;4924871;29;20456;-51
2022/01/18 12:41:54;;;;;;;5.77;3.57;;;9.00;77.30;;;;;;4927392;29;20513;-51
2022/01/18 12:44:22;;;;;;;7.70;3.33;;;9.00;77.50;;;;;;4926203;29;20464;-51
2022/01/18 12:46:53;;;;;;;6.47;4.23;;;9.00;77.60;;;;;;4928519;29;20463;-51
2022/01/18 12:49:21;;;;;;;10.07;4.30;;;8.90;77.80;;;;;;4926808;29;20466;-51
2022/01/18 12:52:08;;;;;;;7.07;3.90;;;8.90;78.00;;;;;;4923397;29;20455;-51
2022/01/18 12:54:36;;;;;;;9.60;5.40;;;8.90;78.00;;;;;;4926809;29;20468;-51
2022/01/18 12:57:22;;;;;;;8.20;3.43;;;8.90;77.90;;;;;;4941503;28;20464;-51
2022/01/18 13:00:09;;;;;;;5.83;3.23;;;9.00;77.50;;;;;;4923988;29;21390;-51
2022/01/18 13:02:35;;;;;;;3.10;2.17;;;9.00;77.30;;;;;;4907581;29;20478;-51
2022/01/18 13:05:08;;;;;;;2.40;1.80;;;8.90;76.30;;;;;;4925571;29;21016;-51
2022/01/18 13:07:52;;;;;;;3.37;1.93;;;8.90;75.70;;;;;;4925228;29;20464;-51
2022/01/18 13:10:32;;;;;;;2.17;1.43;;;8.90;75.10;;;;;;4917694;29;20515;-51
2022/01/18 13:13:00;;;;;;;3.03;1.50;;;8.90;75.20;;;;;;4924330;29;20918;-51
2022/01/18 13:15:47;;;;;;;1.27;1.10;;;8.90;75.30;;;;;;4927334;29;20448;-51
2022/01/18 13:24:28;;;;;;;2.60;1.17;;;8.80;75.10;;;;;;4929154;29;21066;-51
2022/01/18 13:26:46;;;;;;;1.20;1.10;;;8.80;75.10;;;;;;4921662;29;20868;-51
2022/01/18 13:29:26;;;;;;;2.87;1.60;;;8.80;74.90;;;;;;4923119;29;20471;-50
2022/01/18 13:32:02;;;;;;;2.60;1.30;;;8.90;74.40;;;;;;4909622;29;21098;-51
2022/01/18 13:34:31;;;;;;;2.70;1.10;;;8.90;74.30;;;;;;4925946;29;20478;-47
2022/01/18 13:37:00;;;;;;;1.30;1.20;;;8.90;74.40;;;;;;4923359;29;20464;-48
2022/01/18 13:39:31;;;;;;;2.70;1.13;;;8.90;74.50;;;;;;4925784;29;20490;-47
2022/01/18 13:42:00;;;;;;;1.70;1.40;;;8.90;74.10;;;;;;4912901;29;20478;-47
2022/01/18 13:44:28;;;;;;;1.63;1.53;;;8.90;73.90;;;;;;4925756;29;20462;-47
2022/01/18 13:47:18;;;;;;;2.10;1.13;;;8.90;73.80;;;;;;4922647;29;20860;-47
2022/01/18 13:49:45;;;;;;;1.60;1.20;;;8.90;74.00;;;;;;4924045;29;20464;-47
2022/01/18 13:52:13;;;;;;;2.20;1.10;;;8.90;74.10;;;;;;4924245;29;20559;-48
2022/01/18 13:54:51;;;;;;;2.53;1.40;;;8.90;74.10;;;;;;4922596;29;20457;-47
2022/01/18 13:57:20;;;;;;;4.27;1.83;;;8.90;74.10;;;;;;4912334;29;20464;-47
2022/01/18 13:59:49;;;;;;;1.93;1.10;;;8.90;74.20;;;;;;4939177;28;20937;-48
2022/01/18 14:02:18;;;;;;;3.93;2.03;;;8.90;74.30;;;;;;4920543;29;20837;-48
2022/01/18 14:04:48;;;;;;;4.63;2.13;;;8.90;74.40;;;;;;4912272;29;20962;-48
2022/01/18 14:07:15;;;;;;;2.40;1.37;;;8.90;74.30;;;;;;4906208;29;20564;-47
2022/01/18 14:09:41;;;;;;;2.00;1.33;;;8.90;74.40;;;;;;4921677;29;20483;-47
2022/01/18 14:12:17;;;;;;;2.03;1.40;;;8.90;74.30;;;;;;4922001;29;20494;-48
2022/01/18 14:14:45;;;;;;;7.10;2.23;;;8.90;74.40;;;;;;4922921;29;20896;-48
2022/01/18 14:17:15;;;;;;;3.80;2.20;;;8.90;74.40;;;;;;4923167;29;20484;-47
2022/01/18 14:19:44;;;;;;;5.67;3.50;;;8.90;74.40;;;;;;4924160;29;20570;-47
2022/01/18 14:22:21;;;;;;;4.63;2.00;;;8.90;74.40;;;;;;4921497;29;20463;-48
2022/01/18 14:24:50;;;;;;;2.20;1.80;;;8.80;74.50;;;;;;4923113;29;20466;-48
2022/01/18 14:27:28;;;;;;;7.93;2.97;;;8.90;74.50;;;;;;4926295;29;20464;-48
2022/01/18 14:29:57;;;;;;;2.23;2.03;;;8.80;74.50;;;;;;4924008;29;20456;-48
2022/01/18 14:32:30;;;;;;;9.10;4.70;;;8.80;74.50;;;;;;4914014;29;20924;-48
2022/01/18 14:35:04;;;;;;;5.90;4.70;;;8.80;74.60;;;;;;4923149;29;20473;-48
2022/01/18 14:38:01;;;;;;;12.30;7.07;;;8.80;74.70;;;;;;4941821;28;21030;-48
2022/01/18 14:40:30;;;;;;;10.40;5.27;;;8.80;74.70;;;;;;4921724;29;20456;-48
2022/01/18 14:43:05;;;;;;;8.27;4.50;;;8.80;74.60;;;;;;4926310;29;20504;-48
2022/01/18 14:45:37;;;;;;;;;;;;;;;;;;;;;
2022/01/18 14:48:13;;;;;;;6.83;4.07;;;8.80;75.00;;;;;;4924739;29;20470;-47
2022/01/18 14:50:45;;;;;;;5.20;2.87;;;8.80;75.10;;;;;;4912312;29;20495;-47